Time;durP1;ratioP1;P1;durP2;ratioP2;P2;SDS_P1;SDS_P2;PMS_P1;PMS_P2;Temp;Humidity;BMP_temperature;BMP_pressure;BME280_temperature;BME280_humidity;BME280_pressure;Samples;Min_cycle;Max_cycle;Signal;HPM_P1;HPM_P2
2021/12/13 00:01:33;;;;;;;244.13;35.47;;;;;;;4.97;100.00;100150.91;5092796;28;20203;-88
2021/12/13 00:04:07;;;;;;;274.67;37.60;;;;;;;4.94;100.00;100151.84;5090655;28;20194;-88
2021/12/13 00:06:39;;;;;;;202.73;35.53;;;;;;;4.98;100.00;100153.50;5088090;28;20200;-88
2021/12/13 00:09:13;;;;;;;316.07;41.87;;;;;;;4.99;100.00;100155.22;5085840;28;20184;-88
2021/12/13 00:11:45;;;;;;;136.53;29.87;;;;;;;5.08;100.00;100160.22;5086993;28;20191;-87
2021/12/13 00:14:18;;;;;;;355.90;44.73;;;;;;;5.08;100.00;100156.75;5087422;28;20187;-89
2021/12/13 00:16:51;;;;;;;216.57;35.53;;;;;;;5.09;100.00;100158.47;5090861;28;20195;-88
2021/12/13 00:19:23;;;;;;;361.07;43.60;;;;;;;4.87;100.00;100160.78;5091940;28;20192;-88
2021/12/13 00:21:58;;;;;;;189.50;39.33;;;;;;;5.01;100.00;100156.03;5089990;28;20199;-88
2021/12/13 00:24:34;;;;;;;91.87;28.27;;;;;;;4.99;100.00;100163.09;5088405;28;20336;-88
2021/12/13 00:27:09;;;;;;;377.07;47.23;;;;;;;5.01;100.00;100157.78;5086208;28;20208;-88
2021/12/13 00:29:50;;;;;;;244.57;37.80;;;;;;;5.00;100.00;100167.44;5010602;28;20222;-88
2021/12/13 00:32:23;;;;;;;179.47;32.87;;;;;;;4.96;100.00;100163.19;5005700;28;20229;-88
2021/12/13 00:34:55;;;;;;;62.97;26.23;;;;;;;5.08;100.00;100173.34;5009647;28;20222;-88
2021/12/13 00:37:30;;;;;;;124.40;29.80;;;;;;;5.14;100.00;100170.59;5006972;28;20191;-88
2021/12/13 00:40:06;;;;;;;76.07;27.03;;;;;;;5.05;100.00;100168.19;5006372;28;20206;-88
2021/12/13 00:42:38;;;;;;;184.30;34.37;;;;;;;5.01;100.00;100163.91;4952895;29;20196;-88
2021/12/13 00:45:10;;;;;;;109.53;28.60;;;;;;;5.05;100.00;100172.59;4953514;29;20192;-88
2021/12/13 00:47:40;;;;;;;167.23;33.83;;;;;;;4.98;100.00;100173.63;4954602;28;20706;-89
2021/12/13 00:50:16;;;;;;;132.27;32.60;;;;;;;5.00;100.00;100172.69;4953283;29;20200;-88
2021/12/13 00:52:48;;;;;;;120.73;31.30;;;;;;;5.03;100.00;100174.41;4950840;29;20224;-87
2021/12/13 00:55:20;;;;;;;59.97;26.00;;;;;;;5.16;100.00;100168.78;4950041;28;20208;-89
2021/12/13 00:57:51;;;;;;;54.97;24.60;;;;;;;5.10;100.00;100168.06;4952816;29;20193;-88
2021/12/13 01:00:25;;;;;;;53.00;24.93;;;;;;;5.03;100.00;100174.41;4995137;28;20194;-89
2021/12/13 01:03:00;;;;;;;63.30;25.63;;;;;;;5.09;100.00;100166.34;5088197;28;20191;-89
2021/12/13 01:05:45;;;;;;;69.40;25.27;;;;;;;5.04;100.00;100161.22;5092396;28;20196;-90
2021/12/13 01:08:22;;;;;;;92.90;27.80;;;;;;;4.96;100.00;100173.66;5090308;28;20195;-89
2021/12/13 01:11:18;;;;;;;65.30;25.23;;;;;;;5.11;100.00;100172.41;5087498;28;20195;-89
2021/12/13 01:14:05;;;;;;;109.63;27.70;;;;;;;4.98;100.00;100169.25;5091265;28;20211;-88
2021/12/13 01:16:51;;;;;;;133.50;28.77;;;;;;;4.99;100.00;100172.72;5088362;28;20207;-89
2021/12/13 01:22:33;;;;;;;89.67;27.87;;;;;;;5.03;100.00;100175.25;5092493;28;20203;-87
2021/12/13 01:28:09;;;;;;;95.87;26.60;;;;;;;5.10;100.00;100192.56;5079227;28;20206;-86
2021/12/13 01:30:40;;;;;;;273.77;38.43;;;;;;;5.04;100.00;100195.34;5091756;28;20227;-88
2021/12/13 01:33:11;;;;;;;173.33;32.80;;;;;;;5.14;100.00;100196.00;5085504;28;20341;-88
2021/12/13 01:35:44;;;;;;;164.50;31.57;;;;;;;5.05;100.00;100197.06;5090724;28;20646;-87
2021/12/13 01:38:17;;;;;;;138.53;31.37;;;;;;;5.15;100.00;100195.09;5090821;28;20203;-88
2021/12/13 01:40:49;;;;;;;105.47;29.60;;;;;;;5.21;100.00;100201.94;5087995;28;20198;-89
2021/12/13 01:43:24;;;;;;;177.80;34.63;;;;;;;5.24;100.00;100207.13;5090917;28;20237;-88
2021/12/13 01:45:54;;;;;;;129.70;29.07;;;;;;;5.34;100.00;100208.63;5088458;28;20205;-88
2021/12/13 01:48:25;;;;;;;136.87;31.33;;;;;;;5.32;100.00;100206.03;5090688;28;20203;-88
2021/12/13 01:51:04;;;;;;;208.83;35.97;;;;;;;5.39;100.00;100214.59;5094054;28;20319;-87
2021/12/13 01:53:38;;;;;;;126.30;30.30;;;;;;;5.32;100.00;100211.28;5091085;28;20697;-89
2021/12/13 01:56:34;;;;;;;168.27;31.20;;;;;;;5.24;100.00;100215.88;5092522;28;20187;-88
2021/12/13 01:59:16;;;;;;;176.07;34.40;;;;;;;5.20;100.00;100211.56;5097676;28;20217;-87
2021/12/13 02:01:46;;;;;;;100.93;28.50;;;;;;;5.23;100.00;100208.88;5093620;28;20203;-87
2021/12/13 02:04:15;;;;;;;263.33;37.80;;;;;;;5.16;100.00;100205.53;5086114;28;20264;-88
2021/12/13 02:06:51;;;;;;;157.00;31.77;;;;;;;5.30;100.00;100206.94;5094921;28;20188;-88
2021/12/13 02:09:26;;;;;;;105.53;29.83;;;;;;;5.26;100.00;100203.56;5092880;28;20191;-87
2021/12/13 02:11:59;;;;;;;132.70;31.40;;;;;;;5.28;100.00;100198.25;5086949;28;20217;-85
2021/12/13 02:14:32;;;;;;;218.73;34.67;;;;;;;5.34;100.00;100192.84;5035164;28;20694;-87
2021/12/13 02:17:10;;;;;;;171.47;31.83;;;;;;;5.42;100.00;100202.25;5029925;28;20205;-88
2021/12/13 02:19:44;;;;;;;382.57;40.60;;;;;;;5.28;100.00;100199.09;5027080;28;20197;-88
2021/12/13 02:22:42;;;;;;;193.00;33.67;;;;;;;5.28;100.00;100212.25;5029579;28;20193;-88
2021/12/13 02:25:25;;;;;;;201.03;33.20;;;;;;;5.42;100.00;100198.78;5035028;28;20202;-86
2021/12/13 02:27:58;;;;;;;306.80;41.03;;;;;;;5.44;100.00;100213.59;5028819;28;20228;-86
2021/12/13 02:30:38;;;;;;;155.50;33.13;;;;;;;5.49;100.00;100209.97;5031674;28;20313;-85
2021/12/13 02:33:08;;;;;;;240.80;34.30;;;;;;;5.52;100.00;100202.03;5074918;28;20707;-85
2021/12/13 02:35:40;;;;;;;232.53;35.70;;;;;;;5.47;100.00;100204.75;5094094;28;20188;-86
2021/12/13 02:38:14;;;;;;;177.03;33.93;;;;;;;5.44;100.00;100213.59;5089972;28;20195;-88
2021/12/13 02:40:44;;;;;;;345.67;43.73;;;;;;;5.39;100.00;100210.19;5091977;28;20245;-88
2021/12/13 02:43:15;;;;;;;205.33;36.10;;;;;;;5.33;100.00;100210.38;5091539;28;20184;-88
2021/12/13 02:45:48;;;;;;;119.50;29.47;;;;;;;5.59;100.00;100207.03;5096826;28;20196;-88
2021/12/13 02:48:22;;;;;;;186.40;30.60;;;;;;;5.51;100.00;100211.66;5090116;28;20196;-89
2021/12/13 02:50:57;;;;;;;107.60;28.00;;;;;;;5.42;100.00;100210.13;5092023;28;20638;-88
2021/12/13 02:53:31;;;;;;;391.37;47.80;;;;;;;5.28;100.00;100211.38;5091823;28;20190;-88
2021/12/13 02:55:59;;;;;;;286.57;41.37;;;;;;;5.32;100.00;100206.03;5086225;28;20256;-88
2021/12/13 02:58:29;;;;;;;231.67;35.17;;;;;;;5.35;100.00;100198.06;5093816;28;20194;-87
2021/12/13 03:01:05;;;;;;;105.90;29.07;;;;;;;5.48;100.00;100203.84;5031687;28;20216;-87
2021/12/13 03:03:38;;;;;;;210.87;33.33;;;;;;;5.44;100.00;100200.44;5030207;28;20197;-88
2021/12/13 03:06:08;;;;;;;371.77;43.83;;;;;;;5.36;100.00;100206.81;5035192;28;20204;-88
2021/12/13 03:08:42;;;;;;;174.97;33.50;;;;;;;5.45;100.00;100209.19;5028694;28;20201;-87
2021/12/13 03:11:21;;;;;;;316.67;40.57;;;;;;;5.26;100.00;100210.56;5023545;28;20248;-88
2021/12/13 03:13:56;;;;;;;227.20;36.37;;;;;;;5.29;100.00;100208.72;5029905;28;20687;-88
2021/12/13 03:16:30;;;;;;;145.47;31.17;;;;;;;5.35;100.00;100205.94;5028730;28;20197;-87
2021/12/13 03:19:06;;;;;;;101.50;29.27;;;;;;;5.50;100.00;100212.56;5052215;28;20261;-88
2021/12/13 03:22:19;;;;;;;171.20;33.33;;;;;;;5.43;100.00;100221.50;5027688;28;20202;-88
2021/12/13 03:25:09;;;;;;;167.83;30.53;;;;;;;5.35;100.00;100218.22;4957731;28;20207;-88
2021/12/13 03:27:57;;;;;;;188.80;32.07;;;;;;;5.45;100.00;100224.97;4969073;28;20192;-88
2021/12/13 03:30:29;;;;;;;140.70;31.13;;;;;;;5.51;100.00;100208.19;4966373;28;20296;-87
2021/12/13 03:33:01;;;;;;;144.97;30.77;;;;;;;5.47;100.00;100221.38;4972545;28;20218;-88
2021/12/13 03:35:36;;;;;;;274.40;36.83;;;;;;;5.29;100.00;100218.34;4971290;28;20222;-88
2021/12/13 03:38:09;;;;;;;104.33;28.53;;;;;;;5.39;100.00;100217.22;4974461;28;20212;-87
2021/12/13 03:40:39;;;;;;;259.30;35.37;;;;;;;5.36;100.00;100217.31;5002195;28;20198;-86
2021/12/13 03:43:13;;;;;;;217.07;35.73;;;;;;;5.42;100.00;100219.78;5059401;28;20194;-86
2021/12/13 03:45:46;;;;;;;207.13;34.53;;;;;;;5.28;100.00;100217.50;5029798;28;20256;-87
2021/12/13 03:48:18;;;;;;;197.00;31.93;;;;;;;5.41;100.00;100224.19;5028749;28;20190;-87
2021/12/13 03:50:50;;;;;;;350.90;43.30;;;;;;;5.37;100.00;100226.91;5027391;28;20205;-86
2021/12/13 03:53:21;;;;;;;189.53;32.87;;;;;;;5.31;100.00;100221.84;5033546;28;20185;-86
2021/12/13 03:55:56;;;;;;;149.10;31.10;;;;;;;5.38;100.00;100228.63;5032078;28;20509;-86
2021/12/13 03:58:26;;;;;;;271.77;37.00;;;;;;;5.34;100.00;100224.38;5026629;28;20241;-86
2021/12/13 04:00:59;;;;;;;209.77;36.03;;;;;;;5.40;100.00;100229.44;5027393;28;20263;-86
2021/12/13 04:03:29;;;;;;;161.57;33.57;;;;;;;5.42;100.00;100238.19;4997324;28;20242;-87
2021/12/13 04:05:58;;;;;;;168.33;32.97;;;;;;;5.32;100.00;100232.28;5073003;28;20196;-87
2021/12/13 04:08:28;;;;;;;182.17;32.93;;;;;;;5.41;100.00;100228.56;5063728;28;20192;-87
2021/12/13 04:11:02;;;;;;;328.63;43.17;;;;;;;5.36;100.00;100233.94;5069359;28;20206;-87
2021/12/13 04:13:34;;;;;;;238.77;35.40;;;;;;;5.38;100.00;100223.38;5061314;28;20208;-87
2021/12/13 04:16:13;;;;;;;320.63;37.63;;;;;;;5.39;100.00;100225.09;5064492;28;20220;-84
2021/12/13 04:19:08;;;;;;;349.40;41.63;;;;;;;5.24;100.00;100236.88;5068466;28;20193;-85
2021/12/13 04:21:43;;;;;;;191.03;34.70;;;;;;;5.30;100.00;100236.69;5072829;28;20200;-86
2021/12/13 04:24:19;;;;;;;206.77;34.03;;;;;;;5.40;100.00;100234.69;5066408;28;20188;-87
2021/12/13 04:26:59;;;;;;;149.00;30.77;;;;;;;5.42;100.00;100235.56;5072030;28;20211;-87
2021/12/13 04:29:32;;;;;;;188.77;32.50;;;;;;;5.43;100.00;100242.53;4990919;28;20233;-86
2021/12/13 04:32:13;;;;;;;206.17;32.73;;;;;;;5.35;100.00;100245.34;4988229;28;20201;-86
2021/12/13 04:34:42;;;;;;;190.03;33.10;;;;;;;5.43;100.00;100242.53;5003444;28;20221;-85
2021/12/13 04:37:17;;;;;;;220.10;35.47;;;;;;;5.27;100.00;100249.06;5012775;28;20261;-85
2021/12/13 04:39:49;;;;;;;105.50;28.87;;;;;;;5.46;100.00;100252.94;5010323;28;20193;-86
2021/12/13 04:42:21;;;;;;;164.77;30.73;;;;;;;5.39;100.00;100248.75;5007614;28;20198;-87
2021/12/13 04:44:53;;;;;;;125.77;28.43;;;;;;;5.42;100.00;100253.94;5012578;28;20198;-86
2021/12/13 04:47:26;;;;;;;111.43;28.30;;;;;;;5.42;100.00;100262.69;4959252;28;20190;-86
2021/12/13 04:50:03;;;;;;;135.40;29.17;;;;;;;5.49;100.00;100254.63;5010049;28;20191;-86
2021/12/13 04:52:33;;;;;;;152.33;32.70;;;;;;;5.40;100.00;100251.38;4934928;29;20203;-88
2021/12/13 04:55:06;;;;;;;190.10;33.13;;;;;;;5.55;100.00;100257.09;5000322;28;20222;-86
2021/12/13 04:57:38;;;;;;;111.57;29.07;;;;;;;5.58;100.00;100244.75;5008001;28;20206;-86
2021/12/13 05:00:14;;;;;;;198.33;32.80;;;;;;;5.45;100.00;100257.34;5012655;28;20209;-87
2021/12/13 05:02:45;;;;;;;200.17;34.23;;;;;;;5.42;100.00;100267.94;5011626;28;20688;-85
2021/12/13 05:05:15;;;;;;;158.20;31.87;;;;;;;5.35;100.00;100269.00;5009609;28;20195;-86
2021/12/13 05:07:45;;;;;;;128.93;29.17;;;;;;;5.51;100.00;100268.63;5007139;28;20205;-86
2021/12/13 05:10:14;;;;;;;95.53;27.77;;;;;;;5.50;100.00;100266.88;5025837;28;20224;-86
2021/12/13 05:13:00;;;;;;;98.40;27.23;;;;;;;5.47;100.00;100270.44;5084610;28;20192;-86
2021/12/13 05:15:29;;;;;;;87.57;27.87;;;;;;;5.40;100.00;100272.38;5084392;28;20223;-87
2021/12/13 05:18:06;;;;;;;77.77;28.60;;;;;;;5.48;100.00;100259.03;5084430;28;20199;-86
2021/12/13 05:20:38;;;;;;;161.40;31.00;;;;;;;5.37;100.00;100258.44;5087574;28;20219;-86
2021/12/13 05:23:09;;;;;;;72.93;27.33;;;;;;;5.54;100.00;100260.66;5088129;28;20203;-86
2021/12/13 05:25:41;;;;;;;128.13;30.27;;;;;;;5.59;100.00;100274.50;5088589;28;20199;-86
2021/12/13 05:28:14;;;;;;;103.33;27.70;;;;;;;5.53;100.00;100272.91;5093708;28;20195;-86
2021/12/13 05:30:54;;;;;;;192.40;34.67;;;;;;;5.43;100.00;100285.44;5089150;28;20223;-86
2021/12/13 05:33:23;;;;;;;137.43;30.63;;;;;;;5.51;100.00;100271.25;5093850;28;20187;-86
2021/12/13 05:35:55;;;;;;;199.43;33.57;;;;;;;5.52;100.00;100265.94;5090657;28;20215;-86
2021/12/13 05:38:28;;;;;;;147.77;30.53;;;;;;;5.53;100.00;100262.41;5033072;28;20239;-86
2021/12/13 05:40:59;;;;;;;223.40;35.43;;;;;;;5.43;100.00;100260.91;5050149;28;20185;-87
2021/12/13 05:43:33;;;;;;;274.87;39.63;;;;;;;5.38;100.00;100271.53;5047449;28;20195;-86
2021/12/13 05:46:05;;;;;;;157.17;31.30;;;;;;;5.38;100.00;100275.91;5038857;28;20204;-85
2021/12/13 05:48:45;;;;;;;143.77;29.37;;;;;;;5.45;100.00;100265.22;5046320;28;20251;-86
2021/12/13 05:51:25;;;;;;;126.03;28.33;;;;;;;5.51;100.00;100274.72;5048761;28;20204;-85
2021/12/13 05:53:57;;;;;;;140.63;30.70;;;;;;;5.54;100.00;100276.41;5051166;28;20193;-86
2021/12/13 05:56:30;;;;;;;121.93;31.53;;;;;;;5.59;100.00;100274.50;5065440;28;20219;-86
2021/12/13 05:59:12;;;;;;;145.73;30.63;;;;;;;5.64;100.00;100277.91;5093491;28;20196;-86
2021/12/13 06:01:56;;;;;;;85.27;27.83;;;;;;;5.65;100.00;100288.38;5093509;28;20198;-86
2021/12/13 06:04:37;;;;;;;132.80;32.80;;;;;;;5.61;100.00;100291.13;5085520;28;20270;-87
2021/12/13 06:07:22;;;;;;;204.77;34.97;;;;;;;5.60;100.00;100287.63;5009027;28;20198;-87
2021/12/13 06:10:00;;;;;;;148.63;31.90;;;;;;;5.55;100.00;100294.75;4996177;28;20248;-87
2021/12/13 06:12:37;;;;;;;187.70;34.97;;;;;;;5.61;100.00;100288.50;5007012;28;20206;-86
2021/12/13 06:15:28;;;;;;;189.63;36.10;;;;;;;5.57;100.00;100290.31;4933976;29;20212;-86
2021/12/13 06:18:09;;;;;;;211.17;35.23;;;;;;;5.62;100.00;100282.34;4927971;29;20201;-86
2021/12/13 06:20:44;;;;;;;126.23;30.67;;;;;;;5.64;100.00;100293.66;4930922;29;20200;-86
2021/12/13 06:23:17;;;;;;;115.13;29.23;;;;;;;5.64;100.00;100296.28;4877413;29;20195;-86
2021/12/13 06:25:50;;;;;;;136.20;28.90;;;;;;;5.57;100.00;100307.84;4917646;29;20492;-86
2021/12/13 06:28:22;;;;;;;240.37;35.73;;;;;;;5.60;100.00;100308.66;4932688;29;20205;-86
2021/12/13 06:31:00;;;;;;;249.63;37.13;;;;;;;5.61;100.00;100304.28;4933667;29;20284;-86
2021/12/13 06:33:29;;;;;;;172.40;33.20;;;;;;;5.63;100.00;100305.94;4966547;28;20206;-86
2021/12/13 06:36:00;;;;;;;140.13;31.03;;;;;;;5.55;100.00;100310.53;4988586;28;20223;-86
2021/12/13 06:38:40;;;;;;;188.30;34.73;;;;;;;5.67;100.00;100306.72;4993479;28;20194;-86
2021/12/13 06:41:15;;;;;;;86.43;26.60;;;;;;;5.71;100.00;100305.75;5031643;28;20188;-86
2021/12/13 06:43:47;;;;;;;268.67;40.17;;;;;;;5.57;100.00;100311.34;4998409;28;20195;-87
2021/12/13 06:46:33;;;;;;;120.47;29.47;;;;;;;5.63;100.00;100305.94;4987906;28;20761;-85
2021/12/13 06:49:22;;;;;;;189.70;32.20;;;;;;;5.54;100.00;100305.31;4992739;28;20195;-87
2021/12/13 06:51:56;;;;;;;136.40;30.10;;;;;;;5.49;100.00;100309.81;4992771;28;20200;-86
2021/12/13 06:54:37;;;;;;;101.47;27.90;;;;;;;5.53;100.00;100314.97;4956289;29;20207;-86
2021/12/13 06:57:09;;;;;;;62.33;25.63;;;;;;;5.57;100.00;100313.97;4935781;29;20221;-86
2021/12/13 06:59:47;;;;;;;61.00;24.77;;;;;;;5.63;100.00;100318.22;4937106;29;20200;-86
2021/12/13 07:02:21;;;;;;;116.60;30.27;;;;;;;5.59;100.00;100330.56;4935592;29;20215;-86
2021/12/13 07:05:00;;;;;;;96.87;28.53;;;;;;;5.65;100.00;100324.31;4934251;29;20193;-86
2021/12/13 07:07:33;;;;;;;106.37;28.57;;;;;;;5.58;100.00;100325.34;4931680;29;20216;-86
2021/12/13 07:10:09;;;;;;;189.83;34.73;;;;;;;5.59;100.00;100322.69;4930889;29;20240;-86
2021/12/13 07:12:47;;;;;;;87.70;29.43;;;;;;;5.70;100.00;100320.66;4931047;29;20201;-85
2021/12/13 07:15:35;;;;;;;196.00;37.03;;;;;;;5.67;100.00;100325.97;4943720;28;20246;-86
2021/12/13 07:18:29;;;;;;;130.83;31.83;;;;;;;5.61;100.00;100323.53;4953398;28;20267;-86
2021/12/13 07:21:05;;;;;;;141.03;34.03;;;;;;;5.71;100.00;100324.16;5059506;28;20188;-86
2021/12/13 07:23:53;;;;;;;126.20;31.60;;;;;;;5.67;100.00;100323.34;5088664;28;20192;-86
2021/12/13 07:26:32;;;;;;;140.00;32.37;;;;;;;5.65;100.00;100327.78;5095188;28;20192;-86
2021/12/13 07:29:01;;;;;;;147.93;30.63;;;;;;;5.60;100.00;100331.47;5087524;28;20199;-86
2021/12/13 07:31:30;;;;;;;193.97;32.43;;;;;;;5.59;100.00;100327.94;5070254;28;20193;-86
2021/12/13 07:34:14;;;;;;;165.50;33.80;;;;;;;5.65;100.00;100335.69;5075999;28;20224;-84
2021/12/13 07:36:52;;;;;;;193.90;41.67;;;;;;;5.75;100.00;100325.78;5040921;28;20216;-86
2021/12/13 07:39:26;;;;;;;299.03;42.83;;;;;;;5.53;100.00;100329.88;5010319;28;20240;-86
2021/12/13 07:41:59;;;;;;;112.30;30.27;;;;;;;5.62;100.00;100334.91;5007620;28;20197;-86
2021/12/13 07:44:38;;;;;;;166.80;34.77;;;;;;;5.57;100.00;100332.38;4952448;29;20200;-86
2021/12/13 07:47:12;;;;;;;202.27;40.37;;;;;;;5.53;100.00;100338.63;4953247;28;20649;-86
2021/12/13 07:49:45;;;;;;;224.10;41.07;;;;;;;5.62;100.00;100334.91;4896567;29;20190;-86
2021/12/13 07:52:26;;;;;;;184.53;38.27;;;;;;;5.72;100.00;100339.03;4892135;29;20203;-87
2021/12/13 07:54:55;;;;;;;239.30;39.27;;;;;;;5.61;100.00;100341.06;4899382;29;20200;-86
2021/12/13 07:57:26;;;;;;;160.70;35.13;;;;;;;5.72;100.00;100344.28;4891668;29;20218;-87
2021/12/13 07:59:58;;;;;;;276.37;49.30;;;;;;;5.57;100.00;100352.53;4895989;29;20224;-86
2021/12/13 08:02:31;;;;;;;188.80;39.27;;;;;;;5.63;100.00;100358.50;4893360;29;20208;-85
2021/12/13 08:05:11;;;;;;;139.40;33.43;;;;;;;5.67;100.00;100360.16;5004049;28;20199;-85
2021/12/13 08:07:45;;;;;;;124.13;32.33;;;;;;;5.82;100.00;100363.31;5018694;28;20197;-86
2021/12/13 08:10:19;;;;;;;88.93;30.43;;;;;;;5.81;100.00;100370.34;5028386;28;20236;-86
2021/12/13 08:12:50;;;;;;;177.33;35.30;;;;;;;5.84;100.00;100372.88;5028023;28;20243;-86
2021/12/13 08:15:23;;;;;;;256.70;40.03;;;;;;;5.71;100.00;100376.72;5029332;28;20201;-86
2021/12/13 08:17:55;;;;;;;258.97;39.77;;;;;;;5.74;100.00;100379.28;5018522;28;20221;-86
2021/12/13 08:20:29;;;;;;;156.23;31.23;;;;;;;5.78;100.00;100378.28;5041229;28;20196;-86
2021/12/13 08:22:59;;;;;;;170.70;32.50;;;;;;;5.83;100.00;100365.03;5071685;28;20200;-86
2021/12/13 08:25:32;;;;;;;151.20;30.90;;;;;;;5.78;100.00;100377.41;5066988;28;20328;-87
2021/12/13 08:28:05;;;;;;;337.37;42.90;;;;;;;5.82;100.00;100372.06;5069701;28;20218;-86
2021/12/13 08:30:43;;;;;;;179.27;31.37;;;;;;;5.84;100.00;100372.03;5082865;28;20235;-86
2021/12/13 08:33:16;;;;;;;258.13;38.27;;;;;;;5.68;100.00;100375.03;5090533;28;20199;-87
2021/12/13 08:35:56;;;;;;;134.97;28.23;;;;;;;5.82;100.00;100384.34;5086573;28;20206;-87
2021/12/13 08:38:36;;;;;;;250.77;34.93;;;;;;;5.76;100.00;100374.84;5090854;28;20215;-86
2021/12/13 08:41:17;;;;;;;123.70;27.90;;;;;;;5.95;100.00;100381.41;5088643;28;20183;-87
2021/12/13 08:43:51;;;;;;;101.83;27.83;;;;;;;5.95;100.00;100386.66;5090489;28;20199;-86
2021/12/13 08:46:40;;;;;;;199.63;30.27;;;;;;;5.87;100.00;100388.56;5097304;28;20187;-86
2021/12/13 08:49:23;;;;;;;96.07;25.13;;;;;;;5.95;100.00;100398.94;5093053;28;20203;-84
2021/12/13 08:52:04;;;;;;;132.63;33.50;;;;;;;5.82;100.00;100394.88;5086427;28;20198;-85
2021/12/13 08:54:42;;;;;;;102.63;26.67;;;;;;;6.04;100.00;100396.06;5097253;28;20222;-85
2021/12/13 08:57:15;;;;;;;275.97;38.83;;;;;;;6.01;100.00;100402.28;5097797;28;20283;-87
2021/12/13 08:59:52;;;;;;;235.03;35.30;;;;;;;6.07;100.00;100390.72;5096218;28;20192;-86
2021/12/13 09:02:20;;;;;;;218.70;34.40;;;;;;;5.92;100.00;100406.91;5090386;28;20188;-86
2021/12/13 09:04:58;;;;;;;147.43;32.43;;;;;;;5.97;100.00;100402.38;5086756;28;20273;-86
2021/12/13 09:07:29;;;;;;;177.97;36.60;;;;;;;6.03;100.00;100399.63;5104935;28;20283;-85
2021/12/13 09:09:57;;;;;;;226.13;37.50;;;;;;;5.95;100.00;100404.19;5085310;28;20192;-86
2021/12/13 09:12:31;;;;;;;313.57;40.63;;;;;;;6.06;100.00;100402.16;5088644;28;20282;-86
2021/12/13 09:15:02;;;;;;;165.80;32.57;;;;;;;6.10;100.00;100409.09;5088656;28;20191;-86
2021/12/13 09:17:34;;;;;;;120.47;30.10;;;;;;;6.09;100.00;100415.25;5090872;28;20282;-86
2021/12/13 09:20:12;;;;;;;182.23;33.50;;;;;;;5.97;100.00;100416.41;5085582;28;20203;-87
2021/12/13 09:22:46;;;;;;;78.93;24.80;;;;;;;6.09;100.00;100417.03;5087124;28;20200;-87
2021/12/13 09:25:20;;;;;;;116.90;27.63;;;;;;;6.11;100.00;100420.47;5088038;28;20199;-86
2021/12/13 09:27:52;;;;;;;125.93;27.07;;;;;;;6.16;100.00;100424.69;5088163;28;20187;-86
2021/12/13 09:30:29;;;;;;;115.67;28.37;;;;;;;6.04;100.00;100422.38;5103206;28;20355;-82
2021/12/13 09:33:01;;;;;;;102.23;28.57;;;;;;;6.10;100.00;100431.91;5097061;28;20204;-86
2021/12/13 09:35:40;;;;;;;112.57;29.60;;;;;;;6.06;100.00;100424.97;5090887;28;20196;-86
2021/12/13 09:38:44;;;;;;;138.83;30.77;;;;;;;6.11;100.00;100433.63;5088935;28;20207;-86
2021/12/13 09:41:35;;;;;;;169.60;33.70;;;;;;;6.22;100.00;100428.94;5048693;28;20214;-86
2021/12/13 09:44:16;;;;;;;208.07;34.13;;;;;;;6.17;100.00;100436.06;5086406;28;20200;-86
2021/12/13 09:46:48;;;;;;;83.73;29.10;;;;;;;6.26;100.00;100433.22;5084161;28;20245;-87
2021/12/13 09:49:25;;;;;;;89.07;29.17;;;;;;;6.29;100.00;100427.88;5090475;28;20203;-87
2021/12/13 09:51:58;;;;;;;179.77;40.53;;;;;;;6.16;100.00;100421.19;5090241;28;20669;-86
2021/12/13 09:54:34;;;;;;;148.07;38.53;;;;;;;6.29;100.00;100431.38;5085536;28;20249;-88
2021/12/13 09:57:06;;;;;;;104.77;30.70;;;;;;;6.31;100.00;100436.59;5092437;28;20218;-87
2021/12/13 09:59:56;;;;;;;74.37;28.73;;;;;;;6.35;100.00;100418.94;5093556;28;20207;-87
2021/12/13 10:02:28;;;;;;;76.70;30.47;;;;;;;6.23;100.00;100425.41;5087492;28;20669;-86
2021/12/13 10:04:57;;;;;;;80.90;33.47;;;;;;;6.21;100.00;100422.81;5084863;28;20203;-87
2021/12/13 10:07:30;;;;;;;77.40;31.37;;;;;;;6.43;100.00;100416.97;5084178;28;20313;-87
2021/12/13 10:10:05;;;;;;;58.17;27.07;;;;;;;6.51;100.00;100417.66;5093556;28;20221;-87
2021/12/13 10:12:41;;;;;;;66.10;29.43;;;;;;;6.36;100.00;100403.13;5088955;28;20207;-87
2021/12/13 10:15:12;;;;;;;63.73;27.80;;;;;;;6.57;100.00;100406.97;5092152;28;20256;-86
2021/12/13 10:17:44;;;;;;;49.43;24.30;;;;;;;6.57;100.00;100410.47;5092694;28;20224;-87
2021/12/13 10:20:16;;;;;;;54.97;24.93;;;;;;;6.67;100.00;100402.31;5095251;28;20199;-87
2021/12/13 10:22:44;;;;;;;44.73;21.70;;;;;;;6.60;100.00;100404.25;5094644;28;20203;-86
2021/12/13 10:25:17;;;;;;;44.03;22.47;;;;;;;6.60;100.00;100396.34;5097592;28;20192;-86
2021/12/13 10:27:48;;;;;;;45.40;23.10;;;;;;;6.62;100.00;100397.16;5089399;28;20204;-86
2021/12/13 10:30:22;;;;;;;46.73;23.17;;;;;;;6.55;100.00;100395.59;5097082;28;20221;-87
2021/12/13 10:32:53;;;;;;;49.97;23.63;;;;;;;6.62;100.00;100397.16;5086905;28;20650;-86
2021/12/13 10:35:24;;;;;;;50.47;24.13;;;;;;;6.69;100.00;100385.56;5091830;28;20211;-87
2021/12/13 10:37:55;;;;;;;50.10;23.90;;;;;;;6.75;100.00;100385.34;5087959;28;20216;-86
2021/12/13 10:40:30;;;;;;;44.90;23.13;;;;;;;6.69;100.00;100382.91;5087452;28;20684;-88
2021/12/13 10:43:03;;;;;;;41.20;23.33;;;;;;;6.76;100.00;100379.22;5091125;28;20203;-86
2021/12/13 10:45:35;;;;;;;44.37;21.73;;;;;;;6.78;100.00;100376.53;5091629;28;20184;-87
2021/12/13 10:48:08;;;;;;;42.87;21.70;;;;;;;6.88;100.00;100378.00;5090024;28;20196;-87
2021/12/13 10:50:43;;;;;;;42.77;22.17;;;;;;;6.85;100.00;100371.03;5096717;28;20211;-87
2021/12/13 10:53:14;;;;;;;47.03;23.57;;;;;;;7.12;100.00;100376.38;5096721;28;20203;-86
2021/12/13 10:55:51;;;;;;;45.00;23.17;;;;;;;7.00;100.00;100376.75;5089209;28;20242;-87
2021/12/13 10:58:21;;;;;;;45.73;23.63;;;;;;;7.04;100.00;100371.34;5097502;28;20219;-86
2021/12/13 11:00:55;;;;;;;45.70;23.03;;;;;;;7.08;100.00;100378.25;5094644;28;20195;-86
2021/12/13 11:03:29;;;;;;;48.50;24.03;;;;;;;6.99;100.00;100372.41;5091580;28;20187;-86
2021/12/13 11:05:59;;;;;;;45.70;23.30;;;;;;;7.03;100.00;100381.94;5091067;28;20206;-88
2021/12/13 11:08:29;;;;;;;43.90;23.63;;;;;;;6.98;100.00;100375.94;5055612;28;20200;-86
2021/12/13 11:11:05;;;;;;;46.57;25.57;;;;;;;7.10;100.00;100375.56;5093657;28;20642;-84
2021/12/13 11:13:38;;;;;;;39.13;22.87;;;;;;;6.94;100.00;100363.75;5093665;28;20202;-86
2021/12/13 11:16:12;;;;;;;41.90;22.10;;;;;;;7.06;100.00;100364.28;5028704;28;20657;-86
2021/12/13 11:18:41;;;;;;;39.43;20.70;;;;;;;6.94;100.00;100363.75;5028607;28;20224;-86
2021/12/13 11:21:13;;;;;;;36.57;20.70;;;;;;;6.88;100.00;100364.81;5026554;28;20205;-87
2021/12/13 11:23:42;;;;;;;41.03;22.13;;;;;;;6.86;100.00;100350.84;5023438;28;20198;-86
2021/12/13 11:26:17;;;;;;;41.20;24.13;;;;;;;6.95;100.00;100349.69;5029422;28;20197;-87
2021/12/13 11:28:46;;;;;;;42.40;24.07;;;;;;;7.03;100.00;100351.16;5026085;28;20224;-87
2021/12/13 11:31:25;;;;;;;44.10;23.73;;;;;;;7.10;100.00;100346.59;5026913;28;20226;-87
2021/12/13 11:34:37;;;;;;;43.83;24.30;;;;;;;7.11;100.00;100349.16;5028792;28;20206;-86
2021/12/13 11:37:46;;;;;;;40.73;23.67;;;;;;;7.13;100.00;100355.25;5032882;28;20661;-87
2021/12/13 11:40:38;;;;;;;46.90;24.63;;;;;;;7.11;100.00;100351.81;5027753;28;20283;-87
2021/12/13 11:43:27;;;;;;;41.53;24.00;;;;;;;7.27;100.00;100344.31;5033922;28;20206;-87
2021/12/13 11:46:32;;;;;;;50.00;26.80;;;;;;;7.18;100.00;100350.72;5032237;28;20189;-86
2021/12/13 11:49:32;;;;;;;86.03;45.27;;;;;;;7.27;100.00;100346.94;4972064;28;20750;-88